createdAt,value
2023-05-22T00:00:17.697Z,8.30
2023-05-22T00:02:22.710Z,9.10
2023-05-22T00:04:27.423Z,8.50
2023-05-22T00:06:32.051Z,8.10
2023-05-22T00:08:36.690Z,8.30
2023-05-22T00:10:41.511Z,7.80
2023-05-22T00:12:46.384Z,8.20
2023-05-22T00:14:51.046Z,8.10
2023-05-22T00:16:55.893Z,8.30
2023-05-22T00:19:00.637Z,9.50
2023-05-22T00:21:05.585Z,9.80
2023-05-22T00:23:10.824Z,12.20
2023-05-22T00:25:18.453Z,10.70
2023-05-22T00:27:23.114Z,12.90
2023-05-22T00:29:27.812Z,8.30
2023-05-22T00:31:32.576Z,8.40
2023-05-22T00:33:37.329Z,7.90
2023-05-22T00:35:42.004Z,8.20
2023-05-22T00:37:46.684Z,8.10
2023-05-22T00:39:51.497Z,8.20
2023-05-22T00:41:56.367Z,8.30
2023-05-22T00:44:01.298Z,8.60
2023-05-22T00:46:06.476Z,8.10
2023-05-22T00:48:12.181Z,8.20
2023-05-22T00:50:17.894Z,8.10
2023-05-22T00:52:23.918Z,8.50
2023-05-22T00:54:29.047Z,8.50
2023-05-22T00:56:33.986Z,8.50
2023-05-22T00:58:38.697Z,8.50
2023-05-22T01:00:43.788Z,8.20
2023-05-22T01:04:35.984Z,8.00
2023-05-22T01:06:41.252Z,8.40
2023-05-22T01:08:46.455Z,9.80
2023-05-22T01:10:57.117Z,8.80
2023-05-22T01:13:09.399Z,8.90
2023-05-22T01:15:24.628Z,8.80
2023-05-22T01:17:40.151Z,8.80
2023-05-22T01:19:57.113Z,8.70
2023-05-22T01:22:13.018Z,8.90
2023-05-22T01:24:47.949Z,8.60
2023-05-22T01:27:17.364Z,9.10
2023-05-22T01:29:38.474Z,8.70
2023-05-22T01:31:45.775Z,9.10
2023-05-22T01:33:54.960Z,8.70
2023-05-22T01:36:02.620Z,9.30
2023-05-22T01:38:09.113Z,9.00
2023-05-22T01:40:16.018Z,8.80
2023-05-22T01:42:21.364Z,8.50
2023-05-22T01:44:26.512Z,8.70
2023-05-22T01:46:33.695Z,8.60
2023-05-22T01:48:38.884Z,8.30
2023-05-22T01:50:44.746Z,8.50
2023-05-22T01:52:59.392Z,8.60
2023-05-22T01:55:10.023Z,10.40
2023-05-22T01:57:21.285Z,8.80
2023-05-22T01:59:33.071Z,8.60
2023-05-22T02:01:39.642Z,8.30
2023-05-22T02:03:45.895Z,8.40
2023-05-22T02:05:58.797Z,8.20
2023-05-22T02:08:06.506Z,8.40
2023-05-22T02:10:13.417Z,8.30
2023-05-22T02:12:20.108Z,7.90
2023-05-22T02:14:27.805Z,8.40
2023-05-22T02:16:33.058Z,8.20
2023-05-22T02:18:38.098Z,7.90
2023-05-22T02:20:43.164Z,7.60
2023-05-22T02:22:48.816Z,8.20
2023-05-22T02:24:53.864Z,7.50
2023-05-22T02:26:59.014Z,9.40
2023-05-22T02:29:03.991Z,8.10
2023-05-22T02:31:09.046Z,11.60
2023-05-22T02:33:14.072Z,10.90
2023-05-22T02:35:19.751Z,14.30
2023-05-22T02:37:24.733Z,9.20
2023-05-22T02:39:30.072Z,8.60
2023-05-22T02:41:35.222Z,8.20
2023-05-22T02:43:40.855Z,9.00
2023-05-22T02:45:45.951Z,8.70
2023-05-22T02:47:51.332Z,8.20
2023-05-22T02:49:56.547Z,7.90
2023-05-22T02:52:02.187Z,8.10
2023-05-22T02:54:07.386Z,7.90
2023-05-22T02:56:12.520Z,8.60
2023-05-22T02:58:17.793Z,8.70
2023-05-22T03:00:23.629Z,7.60
2023-05-22T03:02:29.188Z,8.20
2023-05-22T03:04:34.443Z,8.60
2023-05-22T03:06:41.080Z,8.00
2023-05-22T03:08:46.186Z,7.80
2023-05-22T03:10:51.881Z,10.60
2023-05-22T03:12:57.139Z,8.10
2023-05-22T03:15:03.388Z,8.50
2023-05-22T03:17:08.769Z,8.10
2023-05-22T03:19:15.187Z,8.20
2023-05-22T03:21:20.629Z,8.10
2023-05-22T03:23:25.672Z,8.00
2023-05-22T03:25:31.203Z,8.70
2023-05-22T03:27:38.201Z,10.40
2023-05-22T03:29:44.101Z,9.40
2023-05-22T03:31:49.627Z,8.40
2023-05-22T03:34:03.730Z,13.60
2023-05-22T03:36:09.715Z,8.90
2023-05-22T03:38:15.054Z,10.20
2023-05-22T03:40:20.699Z,11.40
2023-05-22T03:42:26.454Z,11.30
2023-05-22T03:44:34.242Z,10.10
2023-05-22T03:46:39.385Z,10.00
2023-05-22T03:48:44.502Z,14.70
2023-05-22T03:50:50.548Z,8.80
2023-05-22T03:52:55.801Z,8.30
2023-05-22T03:55:01.298Z,10.90
2023-05-22T03:57:07.254Z,10.00
2023-05-22T03:59:14.344Z,15.10
2023-05-22T04:01:19.391Z,15.80
2023-05-22T04:03:24.449Z,9.00
2023-05-22T04:05:29.860Z,9.50
2023-05-22T04:07:34.915Z,7.40
2023-05-22T04:09:40.232Z,8.70
2023-05-22T04:11:45.250Z,7.50
2023-05-22T04:13:51.149Z,8.40
2023-05-22T04:15:56.451Z,7.80
2023-05-22T04:18:02.820Z,8.10
2023-05-22T04:20:09.704Z,7.80
2023-05-22T04:22:14.849Z,7.90
2023-05-22T04:24:21.931Z,8.00
2023-05-22T04:26:26.966Z,6.90
2023-05-22T04:28:31.871Z,14.50
2023-05-22T04:30:37.070Z,9.20
2023-05-22T04:32:42.495Z,9.40
2023-05-22T04:34:49.145Z,12.60
2023-05-22T04:36:54.281Z,9.40
2023-05-22T04:38:59.147Z,9.50
2023-05-22T04:41:04.023Z,9.60
2023-05-22T04:43:09.072Z,10.00
2023-05-22T04:45:14.236Z,9.90
2023-05-22T04:47:19.505Z,13.30
2023-05-22T04:49:24.329Z,10.60
2023-05-22T04:51:29.453Z,16.70
2023-05-22T04:53:34.537Z,11.40
2023-05-22T04:55:39.495Z,9.30
2023-05-22T04:57:44.677Z,11.00
2023-05-22T04:59:49.732Z,9.40
2023-05-22T05:01:54.578Z,9.30
2023-05-22T05:03:59.355Z,9.50
2023-05-22T05:06:05.782Z,9.50
2023-05-22T05:08:10.748Z,9.70
2023-05-22T05:10:15.624Z,9.60
2023-05-22T05:12:20.696Z,9.10
2023-05-22T05:14:28.965Z,9.20
2023-05-22T05:16:34.025Z,10.50
2023-05-22T05:18:38.891Z,10.10
2023-05-22T05:20:44.430Z,10.50
2023-05-22T05:22:49.393Z,10.90
2023-05-22T05:24:55.785Z,12.40
2023-05-22T05:27:00.894Z,10.00
2023-05-22T05:29:05.805Z,9.20
2023-05-22T05:31:16.452Z,11.20
2023-05-22T05:33:44.062Z,10.00
2023-05-22T05:35:53.836Z,8.10
2023-05-22T05:38:02.410Z,15.20
2023-05-22T05:40:09.751Z,17.80
2023-05-22T05:42:22.060Z,15.90
2023-05-22T05:44:27.356Z,9.00
2023-05-22T05:46:32.425Z,8.50
2023-05-22T05:48:38.002Z,8.10
2023-05-22T05:50:43.305Z,8.40
2023-05-22T05:52:48.449Z,8.20
2023-05-22T05:54:55.737Z,9.00
2023-05-22T05:57:01.023Z,8.20
2023-05-22T05:59:09.625Z,7.70
2023-05-22T06:01:14.456Z,7.90
2023-05-22T06:03:19.751Z,8.00
2023-05-22T06:05:30.115Z,7.50
2023-05-22T06:07:43.467Z,8.20
2023-05-22T06:09:48.788Z,8.10
2023-05-22T06:11:58.508Z,8.20
2023-05-22T06:14:04.927Z,7.90
2023-05-22T06:16:09.954Z,7.50
2023-05-22T06:18:17.998Z,7.20
2023-05-22T06:20:23.151Z,6.80
2023-05-22T06:22:31.104Z,7.00
2023-05-22T06:24:36.148Z,7.40
2023-05-22T06:26:44.984Z,7.10
2023-05-22T06:28:50.242Z,6.70
2023-05-22T06:30:56.290Z,6.40
2023-05-22T06:33:01.527Z,6.80
2023-05-22T06:35:07.571Z,6.60
2023-05-22T06:37:13.010Z,6.90
2023-05-22T06:39:21.099Z,6.80
2023-05-22T06:41:44.163Z,6.40
2023-05-22T06:43:50.074Z,7.00
2023-05-22T06:46:00.173Z,7.00
2023-05-22T06:48:16.819Z,7.40
2023-05-22T06:50:36.584Z,6.90
2023-05-22T06:52:41.711Z,6.50
2023-05-22T06:54:47.589Z,6.70
2023-05-22T06:56:52.954Z,6.60
2023-05-22T06:58:58.065Z,7.00
2023-05-22T07:01:14.570Z,6.90
2023-05-22T07:03:25.765Z,6.40
2023-05-22T07:06:02.785Z,6.60
2023-05-22T07:08:12.165Z,6.80
2023-05-22T07:10:17.185Z,7.70
2023-05-22T07:12:22.209Z,7.20
2023-05-22T07:14:30.916Z,7.10
2023-05-22T07:16:35.942Z,6.90
2023-05-22T07:18:41.835Z,6.70
2023-05-22T07:20:46.735Z,7.30
2023-05-22T07:22:54.042Z,6.60
2023-05-22T07:24:59.550Z,6.90
2023-05-22T07:27:08.029Z,7.30
2023-05-22T07:29:13.804Z,7.40
2023-05-22T07:31:18.724Z,6.90
2023-05-22T07:33:24.094Z,7.10
2023-05-22T07:35:32.446Z,7.20
2023-05-22T07:37:37.910Z,7.20
2023-05-22T07:39:43.131Z,7.30
2023-05-22T07:41:50.834Z,5.50
2023-05-22T07:43:55.958Z,6.90
2023-05-22T07:46:04.879Z,8.20
2023-05-22T07:48:13.575Z,8.00
2023-05-22T07:50:18.683Z,7.90
2023-05-22T07:52:24.037Z,8.40
2023-05-22T07:54:29.144Z,8.30
2023-05-22T07:56:34.253Z,8.40
2023-05-22T07:58:39.503Z,7.90
2023-05-22T08:00:44.494Z,7.50
2023-05-22T08:02:49.470Z,7.70
2023-05-22T08:04:54.600Z,8.30
2023-05-22T08:06:59.576Z,7.90
2023-05-22T08:09:05.175Z,7.30
2023-05-22T08:11:10.515Z,6.80
2023-05-22T08:13:15.776Z,8.00
2023-05-22T08:15:20.871Z,8.40
2023-05-22T08:17:26.033Z,9.40
2023-05-22T08:19:31.033Z,8.50
2023-05-22T08:21:36.058Z,7.20
2023-05-22T08:23:41.066Z,7.40
2023-05-22T08:25:46.042Z,7.70
2023-05-22T08:27:50.882Z,7.00
2023-05-22T08:29:56.112Z,7.10
2023-05-22T08:32:04.429Z,7.10
2023-05-22T08:34:09.370Z,6.30
2023-05-22T08:36:14.428Z,6.20
2023-05-22T08:38:19.444Z,5.90
2023-05-22T08:40:31.631Z,6.50
2023-05-22T08:42:36.468Z,6.50
2023-05-22T08:44:41.583Z,7.60
2023-05-22T08:46:46.621Z,6.60
2023-05-22T08:48:52.218Z,7.20
2023-05-22T08:51:02.300Z,7.10
2023-05-22T08:53:11.696Z,6.40
2023-05-22T08:55:17.261Z,6.90
2023-05-22T08:57:23.362Z,6.90
2023-05-22T08:59:29.981Z,6.30
2023-05-22T09:01:35.137Z,6.50
2023-05-22T09:03:40.865Z,7.20
2023-05-22T09:05:45.936Z,7.40
2023-05-22T09:07:50.837Z,6.70
2023-05-22T09:09:55.804Z,6.70
2023-05-22T09:12:01.232Z,6.70
2023-05-22T09:14:12.312Z,6.80
2023-05-22T09:16:17.546Z,6.80
2023-05-22T09:18:24.553Z,6.80
2023-05-22T09:20:35.717Z,6.60
2023-05-22T09:22:43.362Z,6.60
2023-05-22T09:24:51.254Z,7.20
2023-05-22T09:27:02.769Z,7.60
2023-05-22T09:29:08.466Z,7.30
2023-05-22T09:31:16.814Z,7.70
2023-05-22T09:33:22.678Z,7.50
2023-05-22T09:35:31.252Z,7.60
2023-05-22T09:37:37.314Z,7.40
2023-05-22T09:39:43.397Z,8.40
2023-05-22T09:41:48.270Z,8.20
2023-05-22T09:43:53.235Z,7.80
2023-05-22T09:46:03.158Z,7.80
2023-05-22T09:48:09.150Z,7.90
2023-05-22T09:50:14.187Z,7.90
2023-05-22T09:52:20.499Z,7.70
2023-05-22T09:54:27.892Z,7.60
2023-05-22T09:56:39.867Z,7.40
2023-05-22T09:58:47.098Z,7.10
2023-05-22T10:00:53.058Z,6.90
2023-05-22T10:03:02.438Z,7.40
2023-05-22T10:05:09.520Z,7.20
2023-05-22T10:07:16.208Z,7.40
2023-05-22T10:09:24.766Z,7.70
2023-05-22T10:11:31.936Z,7.60
2023-05-22T10:13:37.114Z,7.60
2023-05-22T10:15:42.116Z,7.20
2023-05-22T10:17:47.578Z,7.70
2023-05-22T10:19:53.909Z,7.90
2023-05-22T10:22:00.486Z,7.00
2023-05-22T10:24:06.016Z,6.70
2023-05-22T10:26:11.953Z,6.80
2023-05-22T10:28:26.171Z,6.60
2023-05-22T10:30:39.819Z,6.70
2023-05-22T10:33:04.433Z,6.60
2023-05-22T10:35:18.169Z,7.00
2023-05-22T10:37:41.101Z,6.80
2023-05-22T10:40:00.928Z,6.20
2023-05-22T10:42:11.482Z,6.70
2023-05-22T10:44:17.456Z,6.20
2023-05-22T10:46:22.398Z,6.40
2023-05-22T10:48:27.823Z,6.20
2023-05-22T10:50:36.326Z,6.40
2023-05-22T10:52:41.637Z,6.20
2023-05-22T10:54:47.548Z,6.20
2023-05-22T10:57:09.744Z,5.70
2023-05-22T10:59:14.875Z,6.10
2023-05-22T11:01:20.905Z,5.80
2023-05-22T11:03:30.344Z,5.70
2023-05-22T11:05:39.194Z,5.30
2023-05-22T11:07:44.550Z,5.90
2023-05-22T11:09:49.606Z,5.20
2023-05-22T11:12:17.985Z,5.50
2023-05-22T11:14:25.775Z,6.20
2023-05-22T11:16:34.521Z,5.70
2023-05-22T11:18:39.756Z,5.60
2023-05-22T11:20:46.680Z,5.50
2023-05-22T11:22:57.043Z,5.50
2023-05-22T11:25:06.741Z,5.90
2023-05-22T11:27:11.839Z,5.80
2023-05-22T11:29:17.892Z,5.40
2023-05-22T11:31:23.461Z,5.30
2023-05-22T11:33:28.723Z,5.60
2023-05-22T11:35:34.022Z,5.60
2023-05-22T11:37:41.639Z,5.50
2023-05-22T11:39:51.381Z,5.80
2023-05-22T11:41:56.415Z,5.80
2023-05-22T11:44:01.700Z,5.60
2023-05-22T11:46:09.874Z,5.80
2023-05-22T11:48:15.677Z,5.60
2023-05-22T11:50:33.245Z,5.70
2023-05-22T11:52:46.039Z,5.30
2023-05-22T11:54:52.119Z,5.90
2023-05-22T11:56:57.500Z,5.70
2023-05-22T11:59:03.174Z,5.40
2023-05-22T12:01:08.667Z,5.50
2023-05-22T12:03:14.567Z,5.90
2023-05-22T12:05:22.188Z,5.80
2023-05-22T12:07:28.654Z,6.20
2023-05-22T12:09:34.020Z,5.50
2023-05-22T12:11:39.604Z,5.90
2023-05-22T12:13:45.047Z,5.60
2023-05-22T12:15:50.607Z,5.50
2023-05-22T12:17:58.162Z,5.40
2023-05-22T12:20:03.602Z,6.90
2023-05-22T12:22:08.712Z,5.70
2023-05-22T12:24:13.737Z,6.80
2023-05-22T12:26:19.329Z,6.90
2023-05-22T12:28:24.203Z,5.70
2023-05-22T12:32:48.970Z,6.80
2023-05-22T12:34:57.999Z,5.30
2023-05-22T12:37:02.968Z,5.70
2023-05-22T12:39:11.028Z,5.70
2023-05-22T12:41:15.843Z,5.40
2023-05-22T12:43:20.938Z,5.70
2023-05-22T12:45:25.937Z,5.30
2023-05-22T12:47:31.165Z,5.30
2023-05-22T12:49:36.179Z,5.70
2023-05-22T12:51:41.200Z,5.40
2023-05-22T12:53:46.170Z,5.60
2023-05-22T12:55:51.115Z,5.60
2023-05-22T12:57:56.274Z,6.50
2023-05-22T13:00:01.235Z,6.00
2023-05-22T13:02:06.817Z,5.30
2023-05-22T13:04:11.807Z,5.40
2023-05-22T13:06:19.684Z,6.50
2023-05-22T13:08:24.606Z,5.10
2023-05-22T13:10:29.554Z,5.30
2023-05-22T13:12:34.596Z,5.60
2023-05-22T13:14:42.384Z,5.30
2023-05-22T13:16:47.664Z,4.90
2023-05-22T13:18:52.798Z,4.80
2023-05-22T13:20:57.882Z,5.70
2023-05-22T13:23:02.835Z,5.40
2023-05-22T13:25:08.835Z,5.90
2023-05-22T13:27:16.276Z,5.60
2023-05-22T13:29:24.029Z,5.40
2023-05-22T13:31:29.218Z,4.80
2023-05-22T13:33:34.359Z,5.30
2023-05-22T13:35:39.556Z,5.20
2023-05-22T13:37:45.168Z,5.20
2023-05-22T13:39:50.328Z,5.40
2023-05-22T13:41:55.513Z,5.40
2023-05-22T13:44:00.613Z,5.20
2023-05-22T13:46:05.732Z,5.70
2023-05-22T13:48:11.627Z,5.60
2023-05-22T13:50:16.941Z,5.50
2023-05-22T13:52:22.042Z,5.60
2023-05-22T13:54:27.365Z,5.50
2023-05-22T13:56:32.458Z,5.10
2023-05-22T13:58:37.308Z,5.30
2023-05-22T14:00:42.234Z,5.30
2023-05-22T14:02:48.277Z,5.10
2023-05-22T14:04:54.272Z,5.50
2023-05-22T14:06:59.451Z,5.10
2023-05-22T14:09:04.549Z,5.50
2023-05-22T14:11:09.898Z,5.40
2023-05-22T14:13:15.607Z,5.20
2023-05-22T14:15:20.604Z,5.60
2023-05-22T14:17:26.047Z,5.30
2023-05-22T14:19:31.227Z,5.20
2023-05-22T14:21:36.465Z,5.50
2023-05-22T14:23:41.884Z,5.20
2023-05-22T14:25:47.070Z,5.30
2023-05-22T14:27:52.382Z,5.20
2023-05-22T14:29:57.465Z,5.10
2023-05-22T14:32:05.417Z,5.40
2023-05-22T14:34:10.348Z,5.30
2023-05-22T14:36:15.338Z,5.40
2023-05-22T14:38:20.474Z,5.60
2023-05-22T14:40:25.370Z,6.80
2023-05-22T14:42:30.412Z,9.50
2023-05-22T14:44:35.571Z,8.10
2023-05-22T14:46:40.721Z,5.80
2023-05-22T14:48:45.845Z,5.80
2023-05-22T14:50:50.772Z,6.20
2023-05-22T14:52:55.785Z,8.00
2023-05-22T14:55:00.734Z,6.00
2023-05-22T14:57:06.120Z,5.70
2023-05-22T14:59:11.167Z,6.30
2023-05-22T15:01:16.219Z,5.00
2023-05-22T15:03:21.306Z,5.70
2023-05-22T15:05:26.446Z,6.30
2023-05-22T15:07:43.053Z,5.80
2023-05-22T15:09:50.168Z,5.10
2023-05-22T15:11:55.112Z,5.60
2023-05-22T15:14:00.053Z,5.40
2023-05-22T15:16:05.489Z,5.40
2023-05-22T15:18:10.590Z,6.10
2023-05-22T15:20:15.735Z,7.50
2023-05-22T15:22:20.585Z,5.90
2023-05-22T15:24:25.567Z,5.30
2023-05-22T15:26:30.473Z,5.20
2023-05-22T15:28:35.483Z,5.40
2023-05-22T15:30:40.455Z,6.00
2023-05-22T15:32:45.644Z,5.50
2023-05-22T15:34:50.755Z,5.60
2023-05-22T15:36:55.784Z,5.50
2023-05-22T15:39:00.935Z,5.80
2023-05-22T15:41:07.036Z,5.30
2023-05-22T15:43:12.114Z,5.20
2023-05-22T15:45:17.011Z,5.60
2023-05-22T15:47:22.200Z,5.30
2023-05-22T15:49:30.130Z,5.20
2023-05-22T15:51:36.047Z,5.60
2023-05-22T15:53:41.142Z,5.30
2023-05-22T15:55:46.185Z,5.80
2023-05-22T15:57:51.115Z,8.80
2023-05-22T15:59:56.014Z,6.20
2023-05-22T16:02:00.938Z,5.40
2023-05-22T16:04:05.841Z,5.20
2023-05-22T16:06:10.906Z,5.60
2023-05-22T16:08:16.704Z,5.40
2023-05-22T16:10:21.782Z,5.30
2023-05-22T16:12:26.815Z,5.50
2023-05-22T16:14:31.692Z,5.60
2023-05-22T16:16:36.702Z,5.70
2023-05-22T16:18:41.964Z,5.80
2023-05-22T16:20:47.017Z,6.10
2023-05-22T16:22:52.130Z,5.00
2023-05-22T16:24:57.125Z,5.60
2023-05-22T16:27:02.027Z,5.50
2023-05-22T16:29:08.172Z,5.50
2023-05-22T16:31:13.079Z,5.60
2023-05-22T16:33:18.102Z,5.70
2023-05-22T16:35:23.567Z,5.50
2023-05-22T16:37:28.467Z,5.30
2023-05-22T16:39:33.457Z,5.70
2023-05-22T16:41:39.174Z,5.90
2023-05-22T16:43:44.138Z,5.70
2023-05-22T16:45:49.137Z,5.70
2023-05-22T16:47:55.959Z,6.20
2023-05-22T16:50:01.493Z,5.10
2023-05-22T16:52:06.790Z,5.60
2023-05-22T16:54:11.744Z,5.40
2023-05-22T16:56:16.781Z,5.40
2023-05-22T16:58:21.841Z,4.90
2023-05-22T17:00:26.990Z,5.30
2023-05-22T17:02:32.140Z,5.00
2023-05-22T17:04:37.096Z,5.20
2023-05-22T17:06:42.147Z,5.40
2023-05-22T17:08:47.124Z,5.00
2023-05-22T17:10:52.313Z,5.00
2023-05-22T17:12:57.312Z,4.80
2023-05-22T17:15:02.194Z,4.80
2023-05-22T17:17:07.106Z,4.80
2023-05-22T17:19:12.140Z,5.10
2023-05-22T17:21:17.096Z,5.40
2023-05-22T17:23:22.072Z,5.60
2023-05-22T17:25:27.508Z,5.20
2023-05-22T17:27:36.200Z,5.70
2023-05-22T17:29:41.698Z,5.60
2023-05-22T17:31:46.673Z,6.20
2023-05-22T17:33:51.697Z,6.10
2023-05-22T17:35:57.477Z,5.60
2023-05-22T17:38:02.485Z,5.90
2023-05-22T17:40:09.667Z,5.70
2023-05-22T17:42:14.825Z,5.60
2023-05-22T17:44:19.829Z,6.00
2023-05-22T17:46:24.934Z,6.40
2023-05-22T17:48:29.885Z,5.80
2023-05-22T17:50:34.857Z,6.20
2023-05-22T17:52:40.258Z,6.90
2023-05-22T17:54:46.225Z,6.50
2023-05-22T17:56:51.163Z,6.20
2023-05-22T17:58:59.089Z,6.50
2023-05-22T18:01:04.205Z,6.10
2023-05-22T18:03:09.411Z,5.80
2023-05-22T18:05:14.541Z,5.60
2023-05-22T18:07:19.394Z,5.80
2023-05-22T18:09:24.342Z,6.30
2023-05-22T18:11:31.385Z,6.00
2023-05-22T18:13:37.305Z,6.20
2023-05-22T18:15:42.441Z,6.30
2023-05-22T18:17:47.573Z,6.00
2023-05-22T18:19:52.557Z,6.40
2023-05-22T18:21:57.610Z,6.40
2023-05-22T18:24:02.724Z,6.70
2023-05-22T18:26:07.848Z,6.60
2023-05-22T18:28:12.739Z,6.40
2023-05-22T18:30:18.297Z,6.20
2023-05-22T18:32:23.215Z,6.70
2023-05-22T18:34:28.242Z,6.30
2023-05-22T18:36:33.184Z,6.50
2023-05-22T18:38:37.983Z,6.50
2023-05-22T18:40:43.090Z,8.30
2023-05-22T18:42:48.051Z,12.80
2023-05-22T18:44:52.996Z,7.80
2023-05-22T18:46:58.128Z,7.20
2023-05-22T18:49:03.862Z,6.80
2023-05-22T18:51:17.816Z,6.90
2023-05-22T18:53:23.794Z,6.60
2023-05-22T18:55:28.826Z,6.40
2023-05-22T18:57:33.765Z,6.40
2023-05-22T18:59:38.824Z,6.70
2023-05-22T19:01:44.998Z,6.60
2023-05-22T19:03:49.920Z,6.80
2023-05-22T19:05:54.801Z,6.50
2023-05-22T19:07:59.704Z,6.70
2023-05-22T19:10:07.774Z,6.60
2023-05-22T19:12:13.194Z,6.80
2023-05-22T19:14:18.091Z,6.70
2023-05-22T19:16:23.047Z,7.10
2023-05-22T19:18:28.408Z,6.90
2023-05-22T19:20:33.798Z,7.30
2023-05-22T19:22:39.736Z,6.60
2023-05-22T19:24:45.088Z,7.10
2023-05-22T19:26:50.201Z,7.20
2023-05-22T19:28:55.143Z,7.40
2023-05-22T19:31:00.592Z,6.80
2023-05-22T19:33:07.952Z,6.90
2023-05-22T19:35:13.998Z,6.70
2023-05-22T19:37:19.097Z,6.70
2023-05-22T19:39:24.285Z,6.20
2023-05-22T19:41:29.246Z,6.90
2023-05-22T19:43:34.244Z,7.00
2023-05-22T19:45:39.457Z,6.20
2023-05-22T19:47:44.539Z,6.90
2023-05-22T19:49:49.634Z,6.10
2023-05-22T19:51:56.117Z,6.10
2023-05-22T19:54:01.362Z,6.40
2023-05-22T19:56:06.290Z,5.90
2023-05-22T19:58:11.246Z,6.20
2023-05-22T20:00:17.459Z,6.50
2023-05-22T20:02:22.481Z,6.00
2023-05-22T20:04:27.409Z,6.30
2023-05-22T20:06:32.252Z,6.20
2023-05-22T20:08:37.106Z,6.50
2023-05-22T20:10:42.189Z,6.80
2023-05-22T20:12:47.189Z,6.10
2023-05-22T20:14:52.114Z,6.20
2023-05-22T20:16:57.068Z,6.40
2023-05-22T20:19:01.939Z,6.70
2023-05-22T20:21:06.951Z,6.90
2023-05-22T20:23:11.802Z,7.10
2023-05-22T20:25:16.651Z,6.50
2023-05-22T20:27:21.701Z,6.20
2023-05-22T20:29:26.595Z,6.70
2023-05-22T20:31:31.570Z,6.60
2023-05-22T20:33:36.482Z,6.90
2023-05-22T20:35:41.747Z,6.80
2023-05-22T20:37:46.905Z,6.90
2023-05-22T20:39:51.810Z,6.60
2023-05-22T20:41:56.852Z,6.90
2023-05-22T20:44:02.011Z,6.20
2023-05-22T20:46:07.068Z,6.50
2023-05-22T20:48:12.102Z,6.60
2023-05-22T20:50:17.259Z,6.80
2023-05-22T20:52:22.116Z,6.50
2023-05-22T20:54:27.111Z,6.50
2023-05-22T20:56:32.072Z,6.60
2023-05-22T20:58:39.117Z,6.80
2023-05-22T21:00:44.149Z,6.80
2023-05-22T21:02:49.212Z,6.40
2023-05-22T21:04:54.298Z,6.90
2023-05-22T21:06:59.306Z,6.40
2023-05-22T21:09:04.491Z,6.10
2023-05-22T21:11:09.851Z,6.50
2023-05-22T21:13:14.796Z,6.50
2023-05-22T21:15:19.612Z,6.60
2023-05-22T21:17:24.849Z,6.40
2023-05-22T21:19:30.064Z,6.80
2023-05-22T21:21:34.997Z,6.50
2023-05-22T21:23:39.965Z,6.50
2023-05-22T21:25:44.914Z,6.50
2023-05-22T21:27:49.845Z,6.30
2023-05-22T21:29:54.730Z,6.40
2023-05-22T21:31:59.648Z,6.80
2023-05-22T21:34:04.527Z,6.10
2023-05-22T21:36:09.699Z,6.50
2023-05-22T21:38:14.614Z,6.50
2023-05-22T21:40:19.779Z,6.40
2023-05-22T21:42:26.240Z,6.60
2023-05-22T21:44:31.300Z,6.60
2023-05-22T21:46:36.426Z,6.20
2023-05-22T21:48:41.404Z,6.80
2023-05-22T21:50:46.294Z,6.60
2023-05-22T21:52:51.165Z,6.60
2023-05-22T21:54:56.261Z,6.60
2023-05-22T21:57:01.204Z,6.60
2023-05-22T21:59:06.171Z,6.70
2023-05-22T22:01:11.122Z,7.40
2023-05-22T22:03:16.204Z,6.70
2023-05-22T22:05:21.279Z,6.90
2023-05-22T22:07:27.396Z,6.70
2023-05-22T22:09:32.579Z,7.10
2023-05-22T22:11:37.664Z,7.30
2023-05-22T22:13:42.640Z,7.30
2023-05-22T22:15:47.723Z,7.60
2023-05-22T22:17:52.779Z,7.30
2023-05-22T22:19:57.701Z,7.20
2023-05-22T22:22:05.881Z,7.20
2023-05-22T22:24:10.865Z,7.20
2023-05-22T22:26:17.052Z,6.90
2023-05-22T22:28:24.767Z,7.00
2023-05-22T22:30:29.974Z,7.10
2023-05-22T22:32:34.868Z,7.50
2023-05-22T22:34:39.950Z,7.40
2023-05-22T22:36:44.867Z,7.40
2023-05-22T22:38:49.881Z,7.30
2023-05-22T22:40:54.878Z,7.50
2023-05-22T22:42:59.733Z,7.40
2023-05-22T22:45:05.207Z,7.30
2023-05-22T22:47:10.244Z,7.20
2023-05-22T22:49:17.843Z,7.20
2023-05-22T22:51:22.907Z,7.40
2023-05-22T22:53:27.851Z,7.60
2023-05-22T22:55:32.852Z,8.00
2023-05-22T22:57:37.951Z,7.80
2023-05-22T22:59:42.981Z,7.70
2023-05-22T23:01:48.357Z,7.90
2023-05-22T23:03:53.622Z,7.50
2023-05-22T23:05:58.783Z,7.70
2023-05-22T23:08:03.632Z,7.60
2023-05-22T23:10:10.392Z,7.70
2023-05-22T23:12:15.541Z,7.90
2023-05-22T23:14:20.495Z,8.80
2023-05-22T23:16:25.405Z,7.90
2023-05-22T23:18:30.512Z,8.10
2023-05-22T23:20:35.424Z,8.50
2023-05-22T23:22:40.584Z,8.30
2023-05-22T23:24:45.547Z,8.10
2023-05-22T23:26:50.516Z,8.80
2023-05-22T23:28:55.752Z,8.60
2023-05-22T23:31:00.757Z,8.60
2023-05-22T23:33:05.852Z,8.00
2023-05-22T23:35:11.251Z,8.40
2023-05-22T23:37:16.292Z,8.50
2023-05-22T23:39:21.317Z,9.00
2023-05-22T23:41:26.360Z,8.60
2023-05-22T23:43:31.288Z,8.20
2023-05-22T23:45:36.307Z,8.70
2023-05-22T23:47:44.019Z,8.60
2023-05-22T23:49:48.932Z,9.20
2023-05-22T23:51:53.974Z,8.20
2023-05-22T23:53:58.949Z,8.50
2023-05-22T23:56:03.956Z,8.10
2023-05-22T23:58:08.948Z,8.10
